createdAt,value
2022-08-18T00:01:52.439Z,94.95
2022-08-18T00:04:34.828Z,73.55
2022-08-18T00:07:05.155Z,86.03
2022-08-18T00:09:33.126Z,71.72
2022-08-18T00:12:03.135Z,98.50
2022-08-18T00:14:33.075Z,78.90
2022-08-18T00:17:01.922Z,84.25
2022-08-18T00:19:46.638Z,84.70
2022-08-18T00:22:18.439Z,102.05
2022-08-18T00:24:49.658Z,137.73
2022-08-18T00:27:21.956Z,172.20
2022-08-18T00:29:54.048Z,175.95
2022-08-18T00:32:23.514Z,184.98
2022-08-18T00:34:51.639Z,178.25
2022-08-18T00:37:19.400Z,179.98
2022-08-18T00:39:48.083Z,166.77
2022-08-18T00:42:27.047Z,160.10
2022-08-18T00:45:02.889Z,150.52
2022-08-18T00:47:42.879Z,161.93
2022-08-18T00:50:15.460Z,164.45
2022-08-18T00:52:50.688Z,168.73
2022-08-18T00:55:19.899Z,170.73
2022-08-18T00:57:48.874Z,162.73
2022-08-18T01:00:18.182Z,168.98
2022-08-18T01:02:50.611Z,178.00
2022-08-18T01:05:24.015Z,197.55
2022-08-18T01:07:52.705Z,203.13
2022-08-18T01:10:22.867Z,206.98
2022-08-18T01:12:52.270Z,202.37
2022-08-18T01:15:28.719Z,200.27
2022-08-18T01:18:15.411Z,179.75
2022-08-18T01:21:06.897Z,166.25
2022-08-18T01:23:41.560Z,154.93
2022-08-18T01:26:09.550Z,128.70
2022-08-18T01:28:40.631Z,137.70
2022-08-18T01:31:09.937Z,117.45
2022-08-18T01:33:39.726Z,121.03
2022-08-18T01:36:14.805Z,123.93
2022-08-18T01:38:44.442Z,137.63
2022-08-18T01:41:27.054Z,143.90
2022-08-18T01:43:59.058Z,158.83
2022-08-18T01:46:27.727Z,166.25
2022-08-18T01:48:55.910Z,154.93
2022-08-18T01:51:40.428Z,160.83
2022-08-18T01:54:12.132Z,164.23
2022-08-18T01:56:40.942Z,170.02
2022-08-18T01:59:15.276Z,174.17
2022-08-18T02:01:50.704Z,172.10
2022-08-18T02:04:34.952Z,169.75
2022-08-18T02:07:06.104Z,174.97
2022-08-18T02:09:37.915Z,167.15
2022-08-18T02:12:07.256Z,159.52
2022-08-18T02:14:36.547Z,151.95
2022-08-18T02:17:06.317Z,138.90
2022-08-18T02:19:35.302Z,151.93
2022-08-18T02:22:03.819Z,161.23
2022-08-18T02:24:32.421Z,151.52
2022-08-18T02:27:01.710Z,142.30
2022-08-18T02:29:29.515Z,133.95
2022-08-18T02:31:57.181Z,147.57
2022-08-18T02:34:25.466Z,152.75
2022-08-18T02:36:53.235Z,172.98
2022-08-18T02:39:20.979Z,172.77
2022-08-18T02:41:48.881Z,163.40
2022-08-18T02:44:18.001Z,149.85
2022-08-18T02:46:46.408Z,142.32
2022-08-18T02:49:14.093Z,152.80
2022-08-18T02:51:41.931Z,153.27
2022-08-18T02:54:11.607Z,141.17
2022-08-18T02:56:41.640Z,141.10
2022-08-18T02:59:13.419Z,140.45
2022-08-18T03:01:46.380Z,127.63
2022-08-18T03:04:16.684Z,119.00
2022-08-18T03:06:46.408Z,124.90
2022-08-18T03:09:16.118Z,128.57
2022-08-18T03:11:43.909Z,123.05
2022-08-18T03:14:12.547Z,121.37
2022-08-18T03:16:54.441Z,131.27
2022-08-18T03:19:23.617Z,136.30
2022-08-18T03:21:52.465Z,137.70
2022-08-18T03:24:22.388Z,137.75
2022-08-18T03:26:52.877Z,142.93
2022-08-18T03:29:21.283Z,147.25
2022-08-18T03:31:51.020Z,146.88
2022-08-18T03:34:21.135Z,147.00
2022-08-18T03:36:49.858Z,169.05
2022-08-18T03:39:18.662Z,184.00
2022-08-18T03:41:59.658Z,181.68
2022-08-18T03:44:30.464Z,210.85
2022-08-18T03:47:00.164Z,191.07
2022-08-18T03:49:28.078Z,177.82
2022-08-18T03:52:01.160Z,156.10
2022-08-18T03:54:29.794Z,147.52
2022-08-18T03:56:57.764Z,156.80
2022-08-18T03:59:27.295Z,160.60
2022-08-18T04:01:56.334Z,172.20
2022-08-18T04:04:29.314Z,173.43
2022-08-18T04:06:59.274Z,154.10
2022-08-18T04:09:29.327Z,154.15
2022-08-18T04:11:57.727Z,167.07
2022-08-18T04:14:28.873Z,159.30
2022-08-18T04:16:56.683Z,162.80
2022-08-18T04:19:27.987Z,155.23
2022-08-18T04:21:57.438Z,154.20
2022-08-18T04:24:26.652Z,154.07
2022-08-18T04:26:58.057Z,142.57
2022-08-18T04:29:26.130Z,148.65
2022-08-18T04:31:53.977Z,145.18
2022-08-18T04:34:22.970Z,146.00
2022-08-18T04:36:54.594Z,143.48
2022-08-18T04:39:23.562Z,145.48
2022-08-18T04:41:51.639Z,139.20
2022-08-18T04:44:20.399Z,144.30
2022-08-18T04:46:50.305Z,143.00
2022-08-18T04:49:19.148Z,135.07
2022-08-18T04:52:36.565Z,142.55
2022-08-18T04:54:58.153Z,146.57
2022-08-18T04:57:26.854Z,145.57
2022-08-18T04:59:54.486Z,149.77
2022-08-18T05:02:22.616Z,152.57
2022-08-18T05:04:52.231Z,155.48
2022-08-18T05:07:23.544Z,157.40
2022-08-18T05:09:51.920Z,155.48
2022-08-18T05:12:25.952Z,150.93
2022-08-18T05:14:56.890Z,143.25
2022-08-18T05:17:30.367Z,153.97
2022-08-18T05:20:01.414Z,146.57
2022-08-18T05:22:31.711Z,152.13
2022-08-18T05:25:00.147Z,147.93
2022-08-18T05:27:35.169Z,143.27
2022-08-18T05:30:03.782Z,149.20
2022-08-18T05:32:47.561Z,145.55
2022-08-18T05:35:22.675Z,141.15
2022-08-18T05:38:02.046Z,141.88
2022-08-18T05:40:31.011Z,148.07
2022-08-18T05:43:00.694Z,136.15
2022-08-18T05:45:29.018Z,132.80
2022-08-18T05:48:00.101Z,138.45
2022-08-18T05:50:29.823Z,132.18
2022-08-18T05:52:59.178Z,130.00
2022-08-18T05:55:49.928Z,131.75
2022-08-18T05:58:21.344Z,138.68
2022-08-18T06:00:59.740Z,149.68
2022-08-18T06:03:31.544Z,148.13
2022-08-18T06:06:16.921Z,150.45
2022-08-18T06:08:48.696Z,148.82
2022-08-18T06:11:22.331Z,151.57
2022-08-18T06:13:54.198Z,145.63
2022-08-18T06:16:35.255Z,152.57
2022-08-18T06:19:05.273Z,147.65
2022-08-18T06:21:40.767Z,143.13
2022-08-18T06:24:19.067Z,146.88
2022-08-18T06:26:52.596Z,143.20
2022-08-18T06:29:42.189Z,134.25
2022-08-18T06:32:19.030Z,139.18
2022-08-18T06:34:57.009Z,130.40
2022-08-18T06:37:30.413Z,137.55
2022-08-18T06:39:59.655Z,134.15
2022-08-18T06:42:30.600Z,128.95
2022-08-18T06:45:02.306Z,128.70
2022-08-18T06:47:37.615Z,127.22
2022-08-18T06:50:08.296Z,130.57
2022-08-18T06:52:38.306Z,124.53
2022-08-18T06:55:09.053Z,128.48
2022-08-18T06:57:38.606Z,125.05
2022-08-18T07:00:11.520Z,125.63
2022-08-18T07:02:51.986Z,129.98
2022-08-18T07:05:25.636Z,125.20
2022-08-18T07:08:07.833Z,120.05
2022-08-18T07:10:38.378Z,117.10
2022-08-18T07:13:17.785Z,119.43
2022-08-18T07:15:48.191Z,118.28
2022-08-18T07:18:23.307Z,116.85
2022-08-18T07:20:54.655Z,110.78
2022-08-18T07:23:27.455Z,110.75
2022-08-18T07:26:03.225Z,116.57
2022-08-18T07:28:33.869Z,111.38
2022-08-18T07:31:18.829Z,109.82
2022-08-18T07:33:53.127Z,103.70
2022-08-18T07:36:21.763Z,100.82
2022-08-18T07:38:52.745Z,103.03
2022-08-18T07:41:26.269Z,106.25
2022-08-18T07:44:16.469Z,108.72
2022-08-18T07:46:51.941Z,98.43
2022-08-18T07:49:22.667Z,101.18
2022-08-18T07:51:54.034Z,105.35
2022-08-18T07:54:51.120Z,101.60
2022-08-18T07:57:26.480Z,106.43
2022-08-18T07:59:59.955Z,106.90
2022-08-18T08:02:37.603Z,101.28
2022-08-18T08:05:11.400Z,95.38
2022-08-18T08:07:42.937Z,89.95
2022-08-18T08:10:26.072Z,85.10
2022-08-18T08:13:09.097Z,72.38
2022-08-18T08:15:46.734Z,46.00
2022-08-18T08:18:20.069Z,44.27
2022-08-18T08:20:50.935Z,40.90
2022-08-18T08:23:27.435Z,40.97
2022-08-18T08:26:08.089Z,36.88
2022-08-18T08:28:42.565Z,41.58
2022-08-18T08:34:55.263Z,35.58
2022-08-18T08:37:29.532Z,38.20
2022-08-18T08:39:59.171Z,35.13
2022-08-18T08:42:36.348Z,38.33
2022-08-18T08:45:10.640Z,34.92
2022-08-18T08:47:43.837Z,33.15
2022-08-18T08:50:16.124Z,32.57
2022-08-18T08:52:48.095Z,29.90
2022-08-18T08:55:19.258Z,34.75
2022-08-18T08:57:51.441Z,31.75
2022-08-18T09:00:19.691Z,32.43
2022-08-18T09:03:11.372Z,32.03
2022-08-18T09:09:43.038Z,30.55
2022-08-18T09:12:19.972Z,29.77
2022-08-18T09:15:25.199Z,29.23
2022-08-18T09:18:05.928Z,27.15
2022-08-18T09:20:49.761Z,30.30
2022-08-18T09:23:21.091Z,26.65
2022-08-18T09:25:52.607Z,28.45
2022-08-18T09:28:23.347Z,31.15
2022-08-18T09:31:10.793Z,32.38
2022-08-18T09:34:17.271Z,30.83
2022-08-18T09:40:12.581Z,25.02
2022-08-18T09:42:55.890Z,26.27
2022-08-18T09:45:55.305Z,24.85
2022-08-18T09:48:30.570Z,24.05
2022-08-18T09:51:23.519Z,24.95
2022-08-18T09:54:14.371Z,24.42
2022-08-18T09:57:23.605Z,23.38
2022-08-18T09:59:59.317Z,23.55
2022-08-18T10:03:04.297Z,24.43
2022-08-18T10:05:32.560Z,23.15
2022-08-18T10:08:35.877Z,18.05
2022-08-18T10:11:20.623Z,20.48
2022-08-18T10:14:05.723Z,20.17
2022-08-18T10:17:12.944Z,21.15
2022-08-18T10:19:40.163Z,21.58
2022-08-18T10:22:09.627Z,21.77
2022-08-18T10:24:41.482Z,20.52
2022-08-18T10:27:29.618Z,22.88
2022-08-18T10:29:58.653Z,23.00
2022-08-18T10:35:58.983Z,16.90
2022-08-18T10:38:46.107Z,15.82
2022-08-18T10:41:31.437Z,14.48
2022-08-18T10:44:00.578Z,15.25
2022-08-18T10:46:34.410Z,16.95
2022-08-18T10:49:18.324Z,13.98
2022-08-18T10:52:00.950Z,15.60
2022-08-18T10:58:05.819Z,16.05
2022-08-18T11:00:45.201Z,14.67
2022-08-18T11:03:50.735Z,13.40
2022-08-18T11:09:02.845Z,15.07
2022-08-18T11:14:44.277Z,12.23
2022-08-18T11:17:18.539Z,15.18
2022-08-18T11:19:50.641Z,11.70
2022-08-18T11:22:31.141Z,13.45
2022-08-18T11:25:01.008Z,16.33
2022-08-18T11:27:32.860Z,13.55
2022-08-18T11:30:02.198Z,13.63
2022-08-18T11:35:25.967Z,17.02
2022-08-18T11:37:59.895Z,10.60
2022-08-18T11:43:29.429Z,10.65
2022-08-18T11:46:00.229Z,11.18
2022-08-18T11:48:50.992Z,12.52
2022-08-18T11:51:23.685Z,11.27
2022-08-18T11:56:45.258Z,13.00
2022-08-18T11:59:52.245Z,13.10
2022-08-18T12:02:22.430Z,11.60
2022-08-18T12:04:53.671Z,10.77
2022-08-18T12:07:28.815Z,22.52
2022-08-18T12:10:19.025Z,11.15
2022-08-18T12:12:51.757Z,12.70
2022-08-18T12:15:44.188Z,43.55
2022-08-18T12:18:18.682Z,7.77
2022-08-18T12:20:55.165Z,7.38
2022-08-18T12:23:23.153Z,10.73
2022-08-18T12:25:52.881Z,6.83
2022-08-18T12:28:22.451Z,7.78
2022-08-18T12:30:57.008Z,15.88
2022-08-18T12:33:34.608Z,10.07
2022-08-18T12:36:15.786Z,9.73
2022-08-18T12:38:52.193Z,8.33
2022-08-18T12:41:26.502Z,11.60
2022-08-18T12:46:42.946Z,9.87
2022-08-18T12:49:16.236Z,11.13
2022-08-18T12:51:44.052Z,8.57
2022-08-18T12:54:12.805Z,9.50
2022-08-18T12:56:42.985Z,7.70
2022-08-18T12:59:11.979Z,9.10
2022-08-18T13:01:41.124Z,10.35
2022-08-18T13:07:04.766Z,10.60
2022-08-18T13:09:53.106Z,9.85
2022-08-18T13:13:24.988Z,12.10
2022-08-18T13:16:01.501Z,10.67
2022-08-18T13:18:31.403Z,9.17
2022-08-18T13:21:00.281Z,8.32
2022-08-18T13:23:29.109Z,7.90
2022-08-18T13:26:01.364Z,9.48
2022-08-18T13:28:35.797Z,10.73
2022-08-18T13:31:23.427Z,8.75
2022-08-18T13:33:57.482Z,8.30
2022-08-18T13:36:44.309Z,9.27
2022-08-18T13:39:16.447Z,7.97
2022-08-18T13:41:48.767Z,11.70
2022-08-18T13:44:19.690Z,9.23
2022-08-18T13:47:52.062Z,7.45
2022-08-18T13:50:29.744Z,10.02
2022-08-18T13:53:01.107Z,12.53
2022-08-18T13:55:29.978Z,8.80
2022-08-18T13:57:58.016Z,10.32
2022-08-18T14:00:31.214Z,5.70
2022-08-18T14:03:03.435Z,7.40
2022-08-18T14:05:50.811Z,5.03
2022-08-18T14:08:20.769Z,7.17
2022-08-18T14:10:50.962Z,6.47
2022-08-18T14:13:24.304Z,5.82
2022-08-18T14:15:56.475Z,5.93
2022-08-18T14:18:31.154Z,7.18
2022-08-18T14:21:23.003Z,7.43
2022-08-18T14:24:14.336Z,8.45
2022-08-18T14:26:50.036Z,7.13
2022-08-18T14:29:46.829Z,6.28
2022-08-18T14:32:06.678Z,6.78
2022-08-18T14:34:35.122Z,7.82
2022-08-18T14:37:05.360Z,9.05
2022-08-18T14:39:38.800Z,9.50
2022-08-18T14:42:10.204Z,8.90
2022-08-18T14:44:41.598Z,9.63
2022-08-18T14:47:13.728Z,9.48
2022-08-18T14:49:52.321Z,9.88
2022-08-18T14:52:27.630Z,8.70
2022-08-18T14:54:56.536Z,8.82
2022-08-18T14:57:25.696Z,9.43
2022-08-18T14:59:53.584Z,6.68
2022-08-18T15:02:26.283Z,10.48
2022-08-18T15:04:56.234Z,6.40
2022-08-18T15:07:27.504Z,4.40
2022-08-18T15:10:15.252Z,5.43
2022-08-18T15:12:44.543Z,6.15
2022-08-18T15:15:18.131Z,4.68
2022-08-18T15:17:52.406Z,6.13
2022-08-18T15:20:23.827Z,7.85
2022-08-18T15:23:18.243Z,7.78
2022-08-18T15:25:52.464Z,6.40
2022-08-18T15:28:23.722Z,6.55
2022-08-18T15:33:42.391Z,7.15
2022-08-18T15:36:16.257Z,9.53
2022-08-18T15:38:46.228Z,6.32
2022-08-18T15:41:33.990Z,9.13
2022-08-18T15:44:03.561Z,6.70
2022-08-18T15:46:33.616Z,6.30
2022-08-18T15:49:05.136Z,10.95
2022-08-18T15:51:35.471Z,6.60
2022-08-18T15:54:11.411Z,6.53
2022-08-18T15:56:39.433Z,4.68
2022-08-18T15:59:11.042Z,10.18
2022-08-18T16:01:43.485Z,5.03
2022-08-18T16:04:12.657Z,4.57
2022-08-18T16:06:45.126Z,2.97
2022-08-18T16:09:15.396Z,6.17
2022-08-18T16:11:43.412Z,4.47
2022-08-18T16:14:11.036Z,5.15
2022-08-18T16:16:38.836Z,6.65
2022-08-18T16:19:07.979Z,5.32
2022-08-18T16:21:39.619Z,6.13
2022-08-18T16:24:08.292Z,3.70
2022-08-18T16:26:37.513Z,3.90
2022-08-18T16:29:05.556Z,4.37
2022-08-18T16:31:33.651Z,7.53
2022-08-18T16:34:02.231Z,4.63
2022-08-18T16:36:29.989Z,4.93
2022-08-18T16:38:58.340Z,4.55
2022-08-18T16:41:27.330Z,8.23
2022-08-18T16:43:56.539Z,3.58
2022-08-18T16:46:26.622Z,4.25
2022-08-18T16:48:54.998Z,8.55
2022-08-18T16:51:25.260Z,7.00
2022-08-18T16:53:54.440Z,5.50
2022-08-18T16:56:24.033Z,5.85
2022-08-18T16:59:10.468Z,4.35
2022-08-18T17:01:57.218Z,4.13
2022-08-18T17:04:28.648Z,2.70
2022-08-18T17:06:57.659Z,4.43
2022-08-18T17:09:27.943Z,2.75
2022-08-18T17:11:56.107Z,5.38
2022-08-18T17:14:27.689Z,4.38
2022-08-18T17:16:58.681Z,4.70
2022-08-18T17:19:30.227Z,3.58
2022-08-18T17:21:58.584Z,3.13
2022-08-18T17:24:31.703Z,3.83
2022-08-18T17:27:22.357Z,4.10
2022-08-18T17:30:00.427Z,2.97
2022-08-18T17:35:09.418Z,3.42
2022-08-18T17:37:37.971Z,3.00
2022-08-18T17:40:08.616Z,7.60
2022-08-18T17:42:40.102Z,5.27
2022-08-18T17:45:13.742Z,5.97
2022-08-18T17:47:56.379Z,3.15
2022-08-18T17:50:45.786Z,6.68
2022-08-18T17:53:15.537Z,2.87
2022-08-18T17:55:46.399Z,3.47
2022-08-18T17:58:20.534Z,6.28
2022-08-18T18:00:48.216Z,4.25
2022-08-18T18:03:17.480Z,3.75
2022-08-18T18:05:52.712Z,4.25
2022-08-18T18:08:20.896Z,5.05
2022-08-18T18:11:04.000Z,4.60
2022-08-18T18:13:35.179Z,4.20
2022-08-18T18:16:21.902Z,4.05
2022-08-18T18:18:59.968Z,5.55
2022-08-18T18:22:00.136Z,3.97
2022-08-18T18:24:24.146Z,4.72
2022-08-18T18:26:52.523Z,7.40
2022-08-18T18:29:28.911Z,7.35
2022-08-18T18:32:01.623Z,3.85
2022-08-18T18:34:39.147Z,5.15
2022-08-18T18:37:25.903Z,6.28
2022-08-18T18:39:58.349Z,4.53
2022-08-18T18:42:29.230Z,5.47
2022-08-18T18:45:00.436Z,4.97
2022-08-18T18:47:49.409Z,3.22
2022-08-18T18:50:28.189Z,4.75
2022-08-18T18:53:11.243Z,4.80
2022-08-18T18:55:44.995Z,3.70
2022-08-18T18:58:22.805Z,6.17
2022-08-18T19:00:54.209Z,4.78
2022-08-18T19:03:27.475Z,5.10
2022-08-18T19:06:06.883Z,9.07
2022-08-18T19:08:39.764Z,7.28
2022-08-18T19:11:15.227Z,5.45
2022-08-18T19:13:47.239Z,4.55
2022-08-18T19:16:26.584Z,4.28
2022-08-18T19:19:37.649Z,7.53
2022-08-18T19:22:05.805Z,5.45
2022-08-18T19:24:38.978Z,6.53
2022-08-18T19:27:12.444Z,8.13
2022-08-18T19:29:43.876Z,6.35
2022-08-18T19:32:16.825Z,7.90
2022-08-18T19:34:52.701Z,5.78
2022-08-18T19:37:32.292Z,6.55
2022-08-18T19:40:04.530Z,6.28
2022-08-18T19:42:37.505Z,4.97
2022-08-18T19:45:16.742Z,5.25
2022-08-18T19:47:50.011Z,4.53
2022-08-18T19:50:35.677Z,6.00
2022-08-18T19:53:20.857Z,3.95
2022-08-18T19:56:03.287Z,3.17
2022-08-18T19:59:15.458Z,4.27
2022-08-18T20:01:53.651Z,5.50
2022-08-18T20:04:28.635Z,5.35
2022-08-18T20:07:25.208Z,6.85
2022-08-18T20:10:14.941Z,6.18
2022-08-18T20:12:57.740Z,7.22
2022-08-18T20:15:28.507Z,7.17
2022-08-18T20:18:02.994Z,5.72
2022-08-18T20:20:32.025Z,5.55
2022-08-18T20:23:01.051Z,4.53
2022-08-18T20:25:40.759Z,8.30
2022-08-18T20:28:33.419Z,4.32
2022-08-18T20:31:12.626Z,3.90
2022-08-18T20:33:46.247Z,5.55
2022-08-18T20:36:31.336Z,5.68
2022-08-18T20:39:01.221Z,5.32
2022-08-18T20:41:41.418Z,5.57
2022-08-18T20:44:57.358Z,6.65
2022-08-18T20:47:47.374Z,5.97
2022-08-18T20:50:44.091Z,5.45
2022-08-18T20:53:19.014Z,7.80
2022-08-18T20:55:56.356Z,7.35
2022-08-18T20:58:32.627Z,9.07
2022-08-18T21:01:01.994Z,7.05
2022-08-18T21:03:37.533Z,9.80
2022-08-18T21:06:06.281Z,5.47
2022-08-18T21:08:36.798Z,9.60
2022-08-18T21:11:08.144Z,6.03
2022-08-18T21:13:40.694Z,7.10
2022-08-18T21:16:09.743Z,7.75
2022-08-18T21:18:38.445Z,8.47
2022-08-18T21:21:26.673Z,6.38
2022-08-18T21:23:58.037Z,4.65
2022-08-18T21:26:27.287Z,4.75
2022-08-18T21:28:59.266Z,8.85
2022-08-18T21:31:44.213Z,8.10
2022-08-18T21:34:18.267Z,5.27
2022-08-18T21:36:53.629Z,6.37
2022-08-18T21:39:24.420Z,5.90
2022-08-18T21:41:54.384Z,5.55
2022-08-18T21:44:25.188Z,12.15
2022-08-18T21:47:05.781Z,9.70
2022-08-18T21:49:34.983Z,6.95
2022-08-18T21:52:02.963Z,6.72
2022-08-18T21:54:34.357Z,7.07
2022-08-18T21:57:23.111Z,8.48
2022-08-18T22:00:25.687Z,11.50
2022-08-18T22:03:11.544Z,5.82
2022-08-18T22:05:59.118Z,6.07
2022-08-18T22:08:29.638Z,6.50
2022-08-18T22:12:01.552Z,5.72
2022-08-18T22:14:53.975Z,5.83
2022-08-18T22:17:31.592Z,10.45
2022-08-18T22:20:39.296Z,8.40
2022-08-18T22:23:39.581Z,10.25
2022-08-18T22:26:12.364Z,10.85
2022-08-18T22:28:51.110Z,8.30
2022-08-18T22:31:21.248Z,8.40
2022-08-18T22:33:51.234Z,8.70
2022-08-18T22:36:21.500Z,11.55
2022-08-18T22:38:49.483Z,9.15
2022-08-18T22:41:18.479Z,14.23
2022-08-18T22:43:46.123Z,12.48
2022-08-18T22:46:24.114Z,11.60
2022-08-18T22:48:55.938Z,7.72
2022-08-18T22:51:25.186Z,7.95
2022-08-18T22:54:06.280Z,13.88
2022-08-18T22:56:35.736Z,12.33
2022-08-18T22:59:14.046Z,12.32
2022-08-18T23:01:46.045Z,13.25
2022-08-18T23:04:16.882Z,8.32
2022-08-18T23:06:51.575Z,12.52
2022-08-18T23:09:21.963Z,7.22
2022-08-18T23:15:43.810Z,14.02
2022-08-18T23:18:12.237Z,15.45
2022-08-18T23:20:41.453Z,12.52
2022-08-18T23:23:09.859Z,13.38
2022-08-18T23:25:37.980Z,14.85
2022-08-18T23:28:10.625Z,20.02
2022-08-18T23:30:40.959Z,13.85
2022-08-18T23:33:10.338Z,9.35
2022-08-18T23:35:38.352Z,9.15
2022-08-18T23:38:08.759Z,8.85
2022-08-18T23:40:38.296Z,13.88
2022-08-18T23:43:06.908Z,13.75
2022-08-18T23:45:36.446Z,11.43
2022-08-18T23:48:04.561Z,10.10
2022-08-18T23:50:32.826Z,14.03
2022-08-18T23:53:02.781Z,17.57
2022-08-18T23:55:33.897Z,18.80
2022-08-18T23:58:01.539Z,17.75
